createdAt,value
2018-07-02T00:58:27.703Z,1.40
2018-07-02T01:00:56.462Z,1.40
2018-07-02T01:03:26.024Z,1.60
2018-07-02T01:05:54.554Z,1.60
2018-07-02T01:08:23.129Z,1.20
2018-07-02T01:10:51.547Z,1.30
2018-07-02T01:13:20.100Z,1.47
2018-07-02T01:15:49.076Z,1.30
2018-07-02T01:18:18.134Z,1.40
2018-07-02T01:20:46.792Z,1.30
2018-07-02T01:23:15.226Z,1.30
2018-07-02T01:25:43.893Z,1.47
2018-07-02T01:28:12.294Z,1.40
2018-07-02T01:30:40.732Z,1.40
2018-07-02T01:33:09.714Z,1.17
2018-07-02T01:35:38.286Z,1.40
2018-07-02T01:38:07.060Z,1.40
2018-07-02T01:40:35.479Z,1.40
2018-07-02T01:43:04.232Z,1.40
2018-07-02T01:45:32.672Z,1.60
2018-07-02T01:48:01.306Z,1.27
2018-07-02T01:50:29.795Z,1.50
2018-07-02T01:52:58.527Z,1.50
2018-07-02T01:55:27.010Z,1.40
2018-07-02T01:57:55.745Z,1.50
2018-07-02T02:00:24.776Z,1.40
2018-07-02T02:02:53.159Z,1.40
2018-07-02T02:05:21.571Z,1.47
2018-07-02T02:07:49.969Z,1.60
2018-07-02T02:10:18.662Z,1.30
2018-07-02T02:12:47.468Z,1.60
2018-07-02T02:15:16.117Z,1.47
2018-07-02T02:17:45.220Z,1.60
2018-07-02T02:20:13.835Z,1.60
2018-07-02T02:22:42.839Z,1.50
2018-07-02T02:25:11.613Z,1.50
2018-07-02T02:27:40.212Z,1.60
2018-07-02T02:30:08.715Z,1.27
2018-07-02T02:32:37.366Z,1.50
2018-07-02T02:35:06.952Z,1.40
2018-07-02T02:37:35.656Z,1.60
2018-07-02T02:40:04.796Z,1.50
2018-07-02T02:42:33.665Z,1.63
2018-07-02T02:45:02.809Z,1.50
2018-07-02T02:47:31.639Z,1.50
2018-07-02T02:50:00.051Z,1.70
2018-07-02T02:52:29.073Z,1.60
2018-07-02T02:54:57.847Z,1.40
2018-07-02T02:57:27.375Z,1.40
2018-07-02T02:59:56.567Z,1.67
2018-07-02T03:02:25.320Z,1.73
2018-07-02T03:04:53.980Z,2.30
2018-07-02T03:07:22.600Z,1.50
2018-07-02T03:09:51.233Z,1.70
2018-07-02T03:12:19.592Z,1.60
2018-07-02T03:14:48.348Z,1.33
2018-07-02T03:17:16.829Z,1.60
2018-07-02T03:19:45.247Z,1.50
2018-07-02T03:22:13.628Z,1.70
2018-07-02T03:24:42.504Z,1.50
2018-07-02T03:27:12.233Z,1.53
2018-07-02T03:29:40.852Z,1.50
2018-07-02T03:32:09.621Z,2.40
2018-07-02T03:34:38.405Z,1.60
2018-07-02T03:37:07.047Z,1.90
2018-07-02T03:39:35.704Z,1.70
2018-07-02T03:42:05.671Z,1.90
2018-07-02T03:44:34.506Z,1.63
2018-07-02T03:47:02.966Z,1.57
2018-07-02T03:49:31.396Z,1.40
2018-07-02T03:51:59.844Z,2.20
2018-07-02T03:54:28.412Z,1.50
2018-07-02T03:56:57.359Z,1.70
2018-07-02T03:59:25.938Z,1.67
2018-07-02T04:01:54.847Z,1.50
2018-07-02T04:04:23.718Z,1.70
2018-07-02T04:06:52.400Z,1.70
2018-07-02T04:09:21.362Z,2.00
2018-07-02T04:11:49.809Z,1.40
2018-07-02T04:14:18.427Z,1.40
2018-07-02T04:16:47.178Z,1.43
2018-07-02T04:19:15.887Z,1.67
2018-07-02T04:21:44.379Z,1.60
2018-07-02T04:24:13.050Z,1.40
2018-07-02T04:26:42.160Z,1.60
2018-07-02T04:29:11.403Z,1.50
2018-07-02T04:31:39.826Z,1.70
2018-07-02T04:34:08.986Z,1.53
2018-07-02T04:36:37.364Z,1.37
2018-07-02T04:39:07.939Z,1.40
2018-07-02T04:41:36.626Z,1.63
2018-07-02T04:44:05.850Z,1.60
2018-07-02T04:46:34.728Z,1.40
2018-07-02T04:49:03.232Z,1.50
2018-07-02T04:51:31.919Z,1.47
2018-07-02T04:54:00.507Z,1.30
2018-07-02T04:56:30.346Z,1.60
2018-07-02T04:58:59.433Z,1.20
2018-07-02T05:01:27.895Z,1.80
2018-07-02T05:03:58.199Z,1.30
2018-07-02T05:06:26.939Z,1.30
2018-07-02T05:08:55.575Z,1.40
2018-07-02T05:11:24.095Z,1.47
2018-07-02T05:13:52.638Z,1.50
2018-07-02T05:16:21.241Z,1.37
2018-07-02T05:18:49.862Z,1.40
2018-07-02T05:21:18.299Z,1.23
2018-07-02T05:23:46.840Z,1.13
2018-07-02T05:26:15.355Z,1.70
2018-07-02T05:28:44.363Z,1.40
2018-07-02T05:31:13.175Z,1.70
2018-07-02T05:33:41.584Z,1.30
2018-07-02T05:36:10.620Z,1.23
2018-07-02T05:38:39.130Z,1.30
2018-07-02T05:41:07.539Z,1.20
2018-07-02T05:43:37.223Z,1.20
2018-07-02T05:46:05.678Z,1.20
2018-07-02T05:48:34.250Z,1.40
2018-07-02T05:51:03.040Z,1.60
2018-07-02T05:53:32.573Z,1.17
2018-07-02T05:56:01.277Z,1.20
2018-07-02T05:58:29.921Z,1.00
2018-07-02T06:00:58.775Z,1.20
2018-07-02T06:03:28.331Z,1.00
2018-07-02T06:05:57.544Z,1.27
2018-07-02T06:08:25.993Z,1.27
2018-07-02T06:10:54.084Z,1.13
2018-07-02T06:13:23.021Z,1.10
2018-07-02T06:15:51.473Z,1.10
2018-07-02T06:18:20.102Z,1.07
2018-07-02T06:20:49.551Z,1.00
2018-07-02T06:23:18.030Z,1.20
2018-07-02T06:25:46.476Z,1.30
2018-07-02T06:28:16.329Z,1.00
2018-07-02T06:30:45.037Z,1.30
2018-07-02T06:33:13.467Z,1.20
2018-07-02T06:35:41.636Z,0.80
2018-07-02T06:38:10.209Z,1.10
2018-07-02T06:40:39.007Z,1.10
2018-07-02T06:43:08.135Z,1.00
2018-07-02T06:45:37.632Z,1.10
2018-07-02T06:48:06.124Z,1.17
2018-07-02T06:50:35.154Z,1.00
2018-07-02T06:53:03.617Z,1.00
2018-07-02T06:55:32.139Z,1.10
2018-07-02T06:58:00.823Z,1.00
2018-07-02T07:00:29.400Z,1.00
2018-07-02T07:02:58.223Z,0.77
2018-07-02T07:05:27.513Z,1.03
2018-07-02T07:07:56.258Z,1.10
2018-07-02T07:10:25.614Z,1.10
2018-07-02T07:12:54.092Z,1.10
2018-07-02T07:15:22.581Z,1.10
2018-07-02T07:17:52.200Z,1.10
2018-07-02T07:20:21.319Z,1.13
2018-07-02T07:22:50.449Z,0.90
2018-07-02T07:25:18.990Z,1.07
2018-07-02T07:27:47.635Z,1.00
2018-07-02T07:30:16.422Z,1.00
2018-07-02T07:32:44.809Z,1.20
2018-07-02T07:35:13.265Z,1.20
2018-07-02T07:37:41.801Z,1.30
2018-07-02T07:40:10.641Z,1.10
2018-07-02T07:42:39.520Z,1.07
2018-07-02T07:45:08.296Z,1.07
2018-07-02T07:47:37.021Z,1.20
2018-07-02T07:50:06.357Z,1.00
2018-07-02T07:52:35.451Z,1.17
2018-07-02T07:55:04.619Z,1.40
2018-07-02T07:57:33.372Z,1.03
2018-07-02T08:00:02.119Z,1.13
2018-07-02T08:02:30.597Z,1.20
2018-07-02T08:04:59.151Z,1.10
2018-07-02T08:07:27.653Z,0.97
2018-07-02T08:09:56.542Z,1.27
2018-07-02T08:12:26.020Z,1.03
2018-07-02T08:14:54.700Z,1.07
2018-07-02T08:17:23.410Z,1.10
2018-07-02T08:19:52.113Z,1.00
2018-07-02T08:22:20.613Z,1.00
2018-07-02T08:24:49.282Z,1.17
2018-07-02T08:27:17.996Z,1.02
2018-07-02T08:29:47.901Z,1.77
2018-07-02T08:32:16.825Z,1.55
2018-07-02T08:34:45.473Z,1.30
2018-07-02T08:37:14.197Z,1.20
2018-07-02T08:39:42.884Z,1.40
2018-07-02T08:42:11.397Z,1.40
2018-07-02T08:44:39.976Z,1.10
2018-07-02T08:47:08.628Z,1.20
2018-07-02T08:49:37.291Z,1.35
2018-07-02T08:52:06.218Z,1.05
2018-07-02T08:54:35.666Z,1.20
2018-07-02T08:57:04.394Z,1.05
2018-07-02T08:59:33.330Z,0.95
2018-07-02T09:02:01.800Z,1.22
2018-07-02T09:04:31.692Z,1.20
2018-07-02T09:07:00.160Z,1.30
2018-07-02T09:09:28.647Z,1.10
2018-07-02T09:11:57.779Z,1.10
2018-07-02T09:14:26.303Z,1.20
2018-07-02T09:16:55.073Z,1.10
2018-07-02T09:19:24.479Z,1.10
2018-07-02T09:21:53.245Z,1.20
2018-07-02T09:24:25.231Z,1.30
2018-07-02T09:26:53.831Z,1.60
2018-07-02T09:29:22.809Z,1.70
2018-07-02T09:31:52.349Z,1.20
2018-07-02T09:34:21.148Z,1.20
2018-07-02T09:36:50.920Z,1.40
2018-07-02T09:39:19.502Z,1.07
2018-07-02T09:41:48.420Z,1.10
2018-07-02T09:44:16.666Z,1.20
2018-07-02T09:46:46.308Z,1.12
2018-07-02T09:49:15.566Z,1.20
2018-07-02T09:51:44.641Z,1.17
2018-07-02T09:54:13.636Z,1.20
2018-07-02T09:56:42.469Z,1.20
2018-07-02T09:59:11.105Z,1.10
2018-07-02T10:01:40.197Z,1.17
2018-07-02T10:04:09.165Z,1.15
2018-07-02T10:06:38.034Z,1.00
2018-07-02T10:09:10.492Z,1.00
2018-07-02T10:11:39.649Z,1.10
2018-07-02T10:14:08.301Z,1.20
2018-07-02T10:16:36.887Z,1.30
2018-07-02T10:19:06.151Z,0.88
2018-07-02T10:21:35.313Z,1.10
2018-07-02T10:24:04.210Z,1.10
2018-07-02T10:26:32.893Z,1.20
2018-07-02T10:29:01.542Z,1.20
2018-07-02T10:31:30.047Z,1.10
2018-07-02T10:33:58.596Z,1.20
2018-07-02T10:36:27.068Z,0.98
2018-07-02T10:38:56.179Z,1.00
2018-07-02T10:41:24.781Z,1.07
2018-07-02T10:43:54.623Z,1.20
2018-07-02T10:46:23.394Z,1.20
2018-07-02T10:48:52.580Z,1.05
2018-07-02T10:51:21.054Z,1.00
2018-07-02T10:53:50.060Z,1.20
2018-07-02T10:56:18.969Z,1.27
2018-07-02T10:58:48.418Z,1.10
2018-07-02T11:01:17.439Z,1.10
2018-07-02T11:03:46.070Z,1.10
2018-07-02T11:06:14.468Z,1.30
2018-07-02T11:08:43.138Z,1.00
2018-07-02T11:11:12.243Z,1.00
2018-07-02T11:13:41.476Z,1.20
2018-07-02T11:16:09.951Z,1.27
2018-07-02T11:18:39.148Z,1.10
2018-07-02T11:21:08.178Z,1.10
2018-07-02T11:23:36.991Z,1.00
2018-07-02T11:26:06.212Z,1.10
2018-07-02T11:28:34.773Z,1.00
2018-07-02T11:31:04.134Z,1.00
2018-07-02T11:33:33.102Z,1.10
2018-07-02T11:36:03.238Z,1.00
2018-07-02T11:38:32.454Z,1.20
2018-07-02T11:41:01.050Z,1.10
2018-07-02T11:43:29.491Z,1.00
2018-07-02T11:45:58.322Z,1.10
2018-07-02T11:48:30.899Z,0.97
2018-07-02T11:51:00.518Z,1.00
2018-07-02T11:53:29.462Z,1.10
2018-07-02T11:55:57.865Z,1.40
2018-07-02T11:58:26.828Z,1.30
2018-07-02T12:00:55.249Z,0.97
2018-07-02T12:03:24.513Z,1.00
2018-07-02T12:05:53.081Z,1.20
2018-07-02T12:08:22.229Z,1.20
2018-07-02T12:10:51.125Z,1.17
2018-07-02T12:13:19.887Z,0.93
2018-07-02T12:15:48.331Z,1.30
2018-07-02T12:18:17.083Z,1.13
2018-07-02T12:20:45.617Z,1.20
2018-07-02T12:23:14.888Z,1.07
2018-07-02T12:25:43.764Z,1.07
2018-07-02T12:28:12.716Z,1.17
2018-07-02T12:30:41.715Z,1.10
2018-07-02T12:33:10.404Z,1.00
2018-07-02T12:35:39.251Z,1.30
2018-07-02T12:38:08.018Z,1.30
2018-07-02T12:40:37.105Z,0.97
2018-07-02T12:43:06.242Z,1.10
2018-07-02T12:45:34.694Z,1.10
2018-07-02T12:48:03.196Z,1.17
2018-07-02T12:50:31.942Z,1.17
2018-07-02T12:53:00.834Z,1.03
2018-07-02T12:55:29.499Z,1.10
2018-07-02T12:57:58.270Z,1.10
2018-07-02T13:00:26.515Z,1.20
2018-07-02T13:03:01.736Z,1.20
2018-07-02T13:05:53.199Z,1.17
2018-07-02T13:08:22.785Z,1.30
2018-07-02T13:10:52.189Z,1.00
2018-07-02T13:13:21.058Z,1.20
2018-07-02T13:15:49.696Z,1.20
2018-07-02T13:18:18.662Z,0.87
2018-07-02T13:20:47.282Z,1.03
2018-07-02T13:23:15.775Z,1.20
2018-07-02T13:25:44.209Z,1.00
2018-07-02T13:28:13.326Z,1.10
2018-07-02T13:30:42.835Z,1.03
2018-07-02T13:33:11.565Z,1.10
2018-07-02T13:35:40.042Z,1.00
2018-07-02T13:38:08.845Z,1.20
2018-07-02T13:40:37.624Z,1.30
2018-07-02T13:43:06.742Z,1.10
2018-07-02T13:45:35.933Z,1.00
2018-07-02T13:48:05.246Z,1.30
2018-07-02T13:50:34.825Z,1.03
2018-07-02T13:53:03.415Z,1.10
2018-07-02T13:55:32.451Z,0.90
2018-07-02T13:58:01.127Z,0.97
2018-07-02T14:00:29.714Z,1.07
2018-07-02T14:02:58.342Z,1.20
2018-07-02T14:05:26.908Z,1.10
2018-07-02T14:07:55.922Z,0.97
2018-07-02T14:10:24.409Z,0.90
2018-07-02T14:12:53.072Z,1.30
2018-07-02T14:15:21.740Z,1.33
2018-07-02T14:17:50.200Z,1.10
2018-07-02T14:20:18.880Z,1.00
2018-07-02T14:22:48.562Z,0.93
2018-07-02T14:25:17.886Z,0.90
2018-07-02T14:27:46.537Z,0.90
2018-07-02T14:30:15.193Z,0.90
2018-07-02T14:32:43.823Z,1.20
2018-07-02T14:35:12.762Z,1.00
2018-07-02T14:37:41.584Z,1.00
2018-07-02T14:40:09.742Z,1.00
2018-07-02T14:42:38.594Z,0.87
2018-07-02T14:45:07.359Z,1.03
2018-07-02T14:47:36.373Z,0.80
2018-07-02T14:50:05.222Z,1.03
2018-07-02T14:52:34.481Z,1.13
2018-07-02T14:55:04.585Z,1.30
2018-07-02T14:57:33.283Z,1.10
2018-07-02T15:00:02.473Z,1.30
2018-07-02T15:02:30.911Z,0.90
2018-07-02T15:04:59.414Z,1.20
2018-07-02T15:07:29.126Z,0.90
2018-07-02T15:09:57.523Z,1.00
2018-07-02T15:12:25.979Z,1.00
2018-07-02T15:14:54.589Z,1.17
2018-07-02T15:17:23.157Z,1.00
2018-07-02T15:19:51.904Z,1.20
2018-07-02T15:22:20.331Z,1.33
2018-07-02T15:24:49.227Z,1.00
2018-07-02T15:27:18.064Z,1.10
2018-07-02T15:29:47.172Z,1.20
2018-07-02T15:32:17.031Z,1.10
2018-07-02T15:34:45.709Z,0.90
2018-07-02T15:37:14.798Z,1.00
2018-07-02T15:39:43.393Z,1.00
2018-07-02T15:42:11.808Z,0.90
2018-07-02T15:44:41.613Z,1.10
2018-07-02T15:47:10.098Z,0.90
2018-07-02T15:49:39.125Z,0.90
2018-07-02T15:52:07.964Z,0.97
2018-07-02T15:54:36.956Z,0.83
2018-07-02T15:57:05.478Z,0.97
2018-07-02T15:59:34.605Z,0.90
2018-07-02T16:02:04.367Z,1.10
2018-07-02T16:04:32.842Z,0.90
2018-07-02T16:07:01.596Z,0.93
2018-07-02T16:09:30.034Z,0.80
2018-07-02T16:11:59.200Z,1.00
2018-07-02T16:14:27.621Z,0.93
2018-07-02T16:16:56.169Z,1.23
2018-07-02T16:19:25.252Z,1.10
2018-07-02T16:21:54.226Z,0.83
2018-07-02T16:24:22.774Z,0.97
2018-07-02T16:26:51.358Z,0.97
2018-07-02T16:29:20.500Z,1.03
2018-07-02T16:31:49.205Z,1.00
2018-07-02T16:34:17.616Z,1.13
2018-07-02T16:36:46.099Z,0.93
2018-07-02T16:39:14.625Z,1.13
2018-07-02T16:41:43.428Z,0.87
2018-07-02T16:44:12.380Z,0.90
2018-07-02T16:46:41.249Z,1.07
2018-07-02T16:49:10.014Z,0.80
2018-07-02T16:51:38.304Z,1.00
2018-07-02T16:54:06.864Z,1.00
2018-07-02T16:56:36.832Z,0.90
2018-07-02T16:59:08.709Z,0.93
2018-07-02T17:01:37.663Z,0.90
2018-07-02T17:04:06.610Z,0.80
2018-07-02T17:06:35.931Z,1.00
2018-07-02T17:09:07.512Z,1.00
2018-07-02T17:11:36.535Z,1.10
2018-07-02T17:14:05.174Z,1.20
2018-07-02T17:16:33.766Z,1.00
2018-07-02T17:19:02.759Z,1.07
2018-07-02T17:21:31.386Z,1.37
2018-07-02T17:23:59.893Z,1.20
2018-07-02T17:26:28.343Z,1.00
2018-07-02T17:28:56.756Z,1.05
2018-07-02T17:31:25.301Z,1.00
2018-07-02T17:33:53.938Z,1.10
2018-07-02T17:36:22.494Z,1.20
2018-07-02T17:38:52.708Z,0.97
2018-07-02T17:41:21.245Z,1.00
2018-07-02T17:43:49.760Z,1.10
2018-07-02T17:46:18.492Z,1.40
2018-07-02T17:48:47.756Z,1.13
2018-07-02T17:51:16.593Z,1.47
2018-07-02T17:53:45.124Z,1.00
2018-07-02T17:56:14.059Z,1.03
2018-07-02T17:58:43.468Z,1.10
2018-07-02T18:01:11.971Z,1.60
2018-07-02T18:03:40.667Z,1.27
2018-07-02T18:06:09.208Z,1.10
2018-07-02T18:08:37.641Z,1.00
2018-07-02T18:11:06.457Z,1.13
2018-07-02T18:13:35.685Z,1.77
2018-07-02T18:16:04.479Z,1.10
2018-07-02T18:18:33.978Z,1.00
2018-07-02T18:21:02.509Z,1.30
2018-07-02T18:23:31.450Z,1.00
2018-07-02T18:25:59.929Z,1.10
2018-07-02T18:28:29.081Z,1.10
2018-07-02T18:30:57.918Z,1.00
2018-07-02T18:33:26.945Z,1.03
2018-07-02T18:35:56.251Z,0.97
2018-07-02T18:38:24.997Z,1.00
2018-07-02T18:40:53.780Z,1.17
2018-07-02T18:43:22.491Z,1.23
2018-07-02T18:45:50.976Z,0.90
2018-07-02T18:48:19.603Z,0.83
2018-07-02T18:50:48.249Z,1.13
2018-07-02T18:53:17.016Z,1.60
2018-07-02T18:55:45.473Z,1.10
2018-07-02T18:58:13.943Z,1.33
2018-07-02T19:00:42.556Z,1.20
2018-07-02T19:03:11.443Z,1.30
2018-07-02T19:05:40.262Z,1.70
2018-07-02T19:08:09.150Z,1.60
2018-07-02T19:10:38.011Z,1.40
2018-07-02T19:13:06.659Z,1.20
2018-07-02T19:15:35.678Z,1.30
2018-07-02T19:18:04.271Z,1.27
2018-07-02T19:20:32.684Z,1.70
2018-07-02T19:23:01.637Z,1.60
2018-07-02T19:25:31.883Z,1.70
2018-07-02T19:28:00.375Z,1.87
2018-07-02T19:30:29.626Z,1.40
2018-07-02T19:32:58.275Z,1.57
2018-07-02T19:35:27.804Z,1.83
2018-07-02T19:37:56.430Z,1.53
2018-07-02T19:40:25.048Z,2.03
2018-07-02T19:42:53.774Z,1.83
2018-07-02T19:45:22.486Z,2.17
2018-07-02T19:47:51.097Z,1.60
2018-07-02T19:50:20.068Z,1.90
2018-07-02T19:52:48.574Z,1.77
2018-07-02T19:55:17.324Z,1.90
2018-07-02T19:57:45.985Z,1.70
2018-07-02T20:00:17.592Z,1.80
2018-07-02T20:02:46.281Z,2.10
2018-07-02T20:05:14.932Z,2.00
2018-07-02T20:07:43.830Z,1.90
2018-07-02T20:10:13.130Z,2.60
2018-07-02T20:12:41.812Z,2.83
2018-07-02T20:15:10.803Z,2.10
2018-07-02T20:17:39.467Z,2.10
2018-07-02T20:20:10.182Z,2.23
2018-07-02T20:22:39.810Z,2.63
2018-07-02T20:25:09.038Z,2.30
2018-07-02T20:27:38.233Z,2.40
2018-07-02T20:30:08.400Z,2.80
2018-07-02T20:32:38.578Z,2.37
2018-07-02T20:35:08.673Z,2.23
2018-07-02T20:37:37.372Z,2.00
2018-07-02T20:40:06.072Z,2.70
2018-07-02T20:42:34.857Z,2.37
2018-07-02T20:45:03.844Z,2.03
2018-07-02T20:47:32.773Z,2.10
2018-07-02T20:50:01.465Z,2.53
2018-07-02T20:52:29.975Z,2.00
2018-07-02T20:54:58.401Z,1.87
2018-07-02T20:57:26.971Z,2.00
2018-07-02T20:59:55.383Z,2.00
2018-07-02T21:02:23.790Z,2.60
2018-07-02T21:04:53.053Z,2.10
2018-07-02T21:07:21.822Z,2.37
2018-07-02T21:09:50.484Z,2.37
2018-07-02T21:12:19.256Z,1.80
2018-07-02T21:14:47.883Z,1.97
2018-07-02T21:17:16.350Z,1.90
2018-07-02T21:19:44.845Z,1.70
2018-07-02T21:22:13.819Z,2.47
2018-07-02T21:24:42.941Z,1.80
2018-07-02T21:27:11.347Z,1.70
2018-07-02T21:29:39.784Z,1.80
2018-07-02T21:32:08.369Z,1.57
2018-07-02T21:34:37.032Z,1.70
2018-07-02T21:37:06.509Z,1.57
2018-07-02T21:39:34.971Z,1.63
2018-07-02T21:42:03.808Z,1.40
2018-07-02T21:44:32.479Z,1.70
2018-07-02T21:47:00.943Z,1.83
2018-07-02T21:49:30.213Z,1.70
2018-07-02T21:51:58.684Z,1.80
2018-07-02T21:54:27.188Z,1.73
